KDLF/DLF METAR and TAF weather

Enter ICAO airport designator
Station Type Date Time Source
KDLF METAR 2020/07/11 02:56 UTC NOAA

KDLF 110256Z AUTO 10007KT 10SM CLR 35/17 A2993 RMK AO2 SLP120 T03480166 52017 $


Station Type Date Time Source
KDLF Decoded METAR 2020/07/11 02:56 UTC NOAA

Laughlin, Laughlin Air Force Base Auxiliary Airfield, TX, United States (KDLF) 29-07-00N 100-28-00W 294M
Jul 10, 2020 - 10:56 PM EDT / 2020.07.11 0256 UTC
Wind: from the E (100 degrees) at 8 MPH (7 KT):0
Visibility: 10 mile(s):0
Sky conditions: clear
Temperature: 94.6 F (34.8 C)
Heat index: 95.0 F (35.0 C):1
Dew Point: 61.9 F (16.6 C)
Relative Humidity: 33%
Pressure (altimeter): 29.93 in. Hg (1013 hPa)
Pressure tendency: 0.05 inches (1.7 hPa) higher than three hours ago
ob: KDLF 110256Z AUTO 10007KT 10SM CLR 35/17 A2993 RMK AO2 SLP120 T03480166 52017
cycle: 3

Station Type Date Time Source
KDLF TAF 2020/07/10 21:20 UTC NOAA

TAF
AMD KDLF 102112Z 1021/1201 13012G18KT 9999 SKC QNH2986INS
BECMG 1101/1102 13006KT 9999 SKC QNH2991INS
BECMG 1117/1118 14012G18KT 9999 SKC QNH2997INS TX43/1119Z TN26/1112Z LAST NO
AMDS AFT 1021 NEXT 1220

Example: see airport list